Time;durP1;ratioP1;P1;durP2;ratioP2;P2;SDS_P1;SDS_P2;PMS_P1;PMS_P2;Temp;Humidity;BMP_temperature;BMP_pressure;BME280_temperature;BME280_humidity;BME280_pressure;Samples;Min_cycle;Max_cycle;Signal;HPM_P1;HPM_P2
2022/10/07 00:01:27;;;;;;;10.40;3.13;;;;;;;8.59;100.00;102688.06;5090037;28;20043;-63
2022/10/07 00:03:52;;;;;;;10.18;3.10;;;;;;;8.58;100.00;102688.88;5090247;28;20043;-63
2022/10/07 00:06:20;;;;;;;14.45;3.38;;;;;;;8.54;100.00;102685.13;5089564;28;20047;-62
2022/10/07 00:08:48;;;;;;;10.02;3.25;;;;;;;8.51;100.00;102687.47;5089935;28;20027;-62
2022/10/07 00:11:16;;;;;;;13.20;3.72;;;;;;;8.49;100.00;102683.94;5089984;28;20388;-63
2022/10/07 00:13:43;;;;;;;8.02;2.72;;;;;;;8.47;100.00;102681.19;5090420;28;20636;-62
2022/10/07 00:16:11;;;;;;;12.27;3.47;;;;;;;8.44;100.00;102677.53;5089630;28;20036;-63
2022/10/07 00:18:38;;;;;;;10.45;3.55;;;;;;;8.43;100.00;102678.31;5089351;28;20028;-63
2022/10/07 00:21:06;;;;;;;9.35;3.00;;;;;;;8.40;100.00;102672.13;5089934;28;20430;-63
2022/10/07 00:23:33;;;;;;;8.98;2.75;;;;;;;8.37;100.00;102669.34;5089883;28;20028;-63
2022/10/07 00:26:00;;;;;;;11.70;3.17;;;;;;;8.35;100.00;102670.91;5089602;28;20373;-62
2022/10/07 00:28:25;;;;;;;7.90;3.15;;;;;;;8.31;100.00;102671.47;5089442;28;20028;-63
2022/10/07 00:30:58;;;;;;;8.55;3.88;;;;;;;8.27;100.00;102666.91;5088745;28;20027;-62
2022/10/07 00:33:24;;;;;;;12.07;4.10;;;;;;;8.26;100.00;102658.25;5089421;28;20211;-62
2022/10/07 00:35:49;;;;;;;7.93;4.25;;;;;;;8.25;100.00;102661.63;5089422;28;20027;-62
2022/10/07 00:38:14;;;;;;;12.05;5.35;;;;;;;8.24;100.00;102658.94;5089283;28;20020;-63
2022/10/07 00:40:40;;;;;;;12.98;4.57;;;;;;;8.23;100.00;102654.53;5089204;28;20020;-62
2022/10/07 00:43:38;;;;;;;13.18;4.22;;;;;;;8.20;100.00;102651.75;5089619;28;20097;-63
2022/10/07 00:46:14;;;;;;;15.55;4.85;;;;;;;8.18;100.00;102651.66;5065425;28;20123;-63
2022/10/07 00:48:41;;;;;;;9.45;4.30;;;;;;;8.13;100.00;102648.72;5088835;28;20465;-62
2022/10/07 00:51:08;;;;;;;12.38;4.10;;;;;;;8.13;100.00;102643.56;5089037;28;20047;-63
2022/10/07 00:53:37;;;;;;;14.30;4.18;;;;;;;8.13;100.00;102648.72;5088654;28;20418;-63
2022/10/07 00:56:05;;;;;;;11.93;4.15;;;;;;;8.11;100.00;102641.69;5089509;28;20058;-63
2022/10/07 00:58:34;;;;;;;12.02;4.53;;;;;;;8.08;100.00;102639.75;5088762;28;20115;-63
2022/10/07 01:01:00;;;;;;;10.10;3.58;;;;;;;8.09;100.00;102640.66;5089499;28;20054;-63
2022/10/07 01:03:26;;;;;;;11.10;3.75;;;;;;;8.08;100.00;102629.44;5089143;28;20107;-63
2022/10/07 01:05:51;;;;;;;9.07;3.60;;;;;;;8.08;100.00;102629.44;5088689;28;20476;-62
2022/10/07 01:08:19;;;;;;;7.63;3.40;;;;;;;8.06;100.00;102631.00;5088801;28;20073;-62
2022/10/07 01:11:16;;;;;;;11.13;3.53;;;;;;;8.07;100.00;102627.66;5088839;28;20039;-63
2022/10/07 01:13:55;;;;;;;15.07;4.30;;;;;;;8.06;100.00;102625.84;5088874;28;20125;-63
2022/10/07 01:16:38;;;;;;;9.07;4.10;;;;;;;8.07;100.00;102629.31;5088887;28;20065;-63
2022/10/07 01:19:35;;;;;;;13.15;3.80;;;;;;;8.05;100.00;102624.97;5089256;28;20024;-62
2022/10/07 01:22:18;;;;;;;14.98;3.90;;;;;;;8.04;100.00;102607.66;5089304;28;20028;-62
2022/10/07 01:25:20;;;;;;;11.15;4.18;;;;;;;8.05;100.00;102609.47;5088371;28;20479;-62
2022/10/07 01:27:51;;;;;;;15.15;4.72;;;;;;;8.04;100.00;102609.38;5088406;28;20024;-62
2022/10/07 01:30:18;;;;;;;11.52;4.20;;;;;;;8.03;100.00;102608.47;5088293;28;20548;-63
2022/10/07 01:32:53;;;;;;;14.02;4.20;;;;;;;8.04;100.00;102606.78;5088631;28;20522;-62
2022/10/07 01:35:24;;;;;;;16.23;5.20;;;;;;;8.03;100.00;102594.63;5087624;28;20102;-63
2022/10/07 01:37:54;;;;;;;16.23;4.90;;;;;;;8.05;100.00;102593.06;5088557;28;20016;-62
2022/10/07 01:40:27;;;;;;;11.75;4.63;;;;;;;8.03;100.00;102586.91;5083773;28;20484;-62
2022/10/07 01:42:54;;;;;;;9.98;5.00;;;;;;;8.02;100.00;102582.53;5087992;28;20048;-63
2022/10/07 01:45:22;;;;;;;15.88;5.10;;;;;;;8.03;100.00;102573.97;5088000;28;20026;-63
2022/10/07 01:47:48;;;;;;;13.82;5.47;;;;;;;8.02;100.00;102574.78;5087725;28;20389;-62
2022/10/07 01:50:14;;;;;;;16.35;5.57;;;;;;;8.00;100.00;102573.78;5087997;28;20027;-63
2022/10/07 01:52:49;;;;;;;13.70;6.35;;;;;;;7.99;100.00;102569.38;5087737;28;20169;-63
2022/10/07 01:55:27;;;;;;;11.30;5.55;;;;;;;7.98;100.00;102559.84;5087426;28;20023;-62
2022/10/07 01:58:11;;;;;;;14.93;4.85;;;;;;;7.97;100.00;102558.94;5087949;28;20053;-62
2022/10/07 02:00:44;;;;;;;15.40;4.93;;;;;;;7.96;100.00;102546.84;5087372;28;20035;-62
2022/10/07 02:03:50;;;;;;;11.65;5.22;;;;;;;7.95;100.00;102552.78;5087895;28;20032;-63
2022/10/07 02:06:34;;;;;;;13.82;5.05;;;;;;;7.95;100.00;102539.00;5087615;28;20390;-62
2022/10/07 02:09:06;;;;;;;11.80;4.40;;;;;;;7.95;100.00;102546.75;5086763;28;20123;-63
2022/10/07 02:11:36;;;;;;;19.58;4.75;;;;;;;7.97;100.00;102537.44;5088000;28;20042;-62
2022/10/07 02:14:14;;;;;;;11.55;4.25;;;;;;;7.96;100.00;102539.09;5087262;28;20039;-62
2022/10/07 02:16:47;;;;;;;14.90;4.60;;;;;;;7.95;100.00;102529.53;5087009;28;20024;-62
2022/10/07 02:19:34;;;;;;;11.43;3.80;;;;;;;7.91;100.00;102528.47;5087984;28;20093;-62
2022/10/07 02:22:02;;;;;;;17.38;4.25;;;;;;;7.93;100.00;102531.16;5087621;28;20460;-63
2022/10/07 02:24:31;;;;;;;14.50;4.68;;;;;;;7.92;100.00;102530.25;5087008;28;20043;-62
2022/10/07 02:27:01;;;;;;;14.40;4.00;;;;;;;7.90;100.00;102521.50;5087484;28;20094;-62
2022/10/07 02:29:32;;;;;;;14.60;4.45;;;;;;;7.89;100.00;102524.88;5087703;28;20084;-62
2022/10/07 02:31:59;;;;;;;11.77;3.83;;;;;;;7.89;100.00;102517.13;5087379;28;20101;-62
2022/10/07 02:34:26;;;;;;;10.60;3.42;;;;;;;7.90;100.00;102516.31;5087400;28;20031;-62
2022/10/07 02:36:57;;;;;;;11.50;3.88;;;;;;;7.89;100.00;102514.56;5086908;28;20023;-63
2022/10/07 02:39:23;;;;;;;12.43;4.07;;;;;;;7.88;100.00;102506.69;5087194;28;20028;-62
2022/10/07 02:41:49;;;;;;;16.45;4.40;;;;;;;7.85;100.00;102507.38;5087071;28;20169;-63
2022/10/07 02:44:32;;;;;;;10.75;3.65;;;;;;;7.85;100.00;102501.31;5087202;28;20028;-63
2022/10/07 02:47:04;;;;;;;12.57;4.38;;;;;;;7.83;100.00;102497.72;5087288;28;20032;-62
2022/10/07 02:49:37;;;;;;;13.80;4.40;;;;;;;7.80;100.00;102493.25;5086940;28;20106;-62
2022/10/07 02:52:06;;;;;;;13.07;4.05;;;;;;;7.80;100.00;102488.09;5086944;28;20428;-63
2022/10/07 02:54:40;;;;;;;14.45;4.53;;;;;;;7.80;100.00;102498.41;5086964;28;20388;-63
2022/10/07 02:57:07;;;;;;;11.88;3.97;;;;;;;7.80;100.00;102488.09;5087156;28;20185;-62
2022/10/07 02:59:34;;;;;;;15.45;4.07;;;;;;;7.77;100.00;102490.47;5087299;28;20031;-63
2022/10/07 03:02:04;;;;;;;12.27;3.95;;;;;;;7.76;100.00;102481.81;5087390;28;20028;-63
2022/10/07 03:04:29;;;;;;;12.63;4.13;;;;;;;7.75;100.00;102479.13;5086684;28;20067;-62
2022/10/07 03:06:57;;;;;;;14.95;3.97;;;;;;;7.76;100.00;102483.50;5087234;28;20494;-63
2022/10/07 03:09:23;;;;;;;16.75;4.10;;;;;;;7.73;100.00;102480.69;5086571;28;20028;-63
2022/10/07 03:11:49;;;;;;;13.75;3.90;;;;;;;7.72;100.00;102484.09;5090468;28;20053;-63
2022/10/07 03:14:14;;;;;;;11.50;3.63;;;;;;;7.69;100.00;102472.75;5076916;28;20032;-62
2022/10/07 03:16:39;;;;;;;11.40;3.83;;;;;;;7.68;100.00;102478.69;5091666;28;20028;-62
2022/10/07 03:19:05;;;;;;;15.20;4.00;;;;;;;7.67;100.00;102469.16;5091105;28;20570;-62
2022/10/07 03:21:32;;;;;;;11.85;4.28;;;;;;;7.64;100.00;102470.63;5090801;28;20260;-62
2022/10/07 03:24:00;;;;;;;14.15;4.70;;;;;;;7.63;100.00;102469.72;5090378;28;20047;-62
2022/10/07 03:26:25;;;;;;;12.68;4.20;;;;;;;7.62;100.00;102467.03;5090536;28;20035;-62
2022/10/07 03:28:50;;;;;;;9.85;3.95;;;;;;;7.60;100.00;102463.44;5090866;28;20020;-62
2022/10/07 03:31:16;;;;;;;12.65;4.13;;;;;;;7.59;100.00;102464.25;5090517;28;20028;-62
2022/10/07 03:33:42;;;;;;;11.13;4.28;;;;;;;7.57;100.00;102459.00;5090569;28;20028;-62
2022/10/07 03:36:07;;;;;;;13.40;3.65;;;;;;;7.55;100.00;102450.25;5090561;28;20035;-62
2022/10/07 03:38:34;;;;;;;9.23;3.38;;;;;;;7.54;100.00;102453.59;5090490;28;20028;-62
2022/10/07 03:41:03;;;;;;;13.77;4.22;;;;;;;7.52;100.00;102450.03;5090877;28;20024;-62
2022/10/07 03:43:29;;;;;;;12.07;3.63;;;;;;;7.52;100.00;102444.88;5090606;28;20081;-62
2022/10/07 03:45:57;;;;;;;13.20;4.10;;;;;;;7.52;100.00;102444.88;5088673;28;20028;-62
2022/10/07 03:48:22;;;;;;;10.45;3.40;;;;;;;7.49;100.00;102436.91;5090439;28;20028;-63
2022/10/07 03:50:51;;;;;;;12.68;4.05;;;;;;;7.47;100.00;102441.94;5089952;28;20034;-62
2022/10/07 03:53:18;;;;;;;11.95;3.67;;;;;;;7.47;100.00;102443.63;5090227;28;20027;-63
2022/10/07 03:55:44;;;;;;;10.27;3.67;;;;;;;7.43;100.00;102446.00;5089546;28;20044;-63
2022/10/07 03:58:11;;;;;;;13.30;3.92;;;;;;;7.44;100.00;102450.38;5090283;28;20024;-63
2022/10/07 04:00:37;;;;;;;13.23;3.40;;;;;;;7.44;100.00;102442.66;5090378;28;20038;-62
2022/10/07 04:03:04;;;;;;;15.48;4.78;;;;;;;7.44;100.00;102442.66;5090811;28;20152;-62
2022/10/07 04:05:29;;;;;;;12.70;3.80;;;;;;;7.42;100.00;102444.22;5090074;28;20039;-62
2022/10/07 04:07:54;;;;;;;10.80;3.63;;;;;;;7.40;100.00;102450.03;5089117;28;20020;-62
2022/10/07 04:10:20;;;;;;;12.32;4.05;;;;;;;7.37;100.00;102445.59;5090402;28;20032;-62
2022/10/07 04:12:50;;;;;;;11.40;4.07;;;;;;;7.34;100.00;102445.34;5089714;28;20032;-62
2022/10/07 04:15:15;;;;;;;16.67;4.28;;;;;;;7.31;100.00;102439.97;5090000;28;20036;-62
2022/10/07 04:17:42;;;;;;;16.67;4.47;;;;;;;7.29;100.00;102433.81;5089166;28;20092;-62
2022/10/07 04:20:08;;;;;;;12.95;4.43;;;;;;;7.26;100.00;102436.16;5089682;28;20028;-63
2022/10/07 04:22:35;;;;;;;9.90;3.47;;;;;;;7.25;100.00;102435.25;5088885;28;20476;-62
2022/10/07 04:27:51;;;;;;;12.60;3.88;;;;;;;7.24;100.00;102435.16;5089672;28;20505;-62
2022/10/07 04:30:16;;;;;;;8.18;4.03;;;;;;;7.21;100.00;102429.00;5089460;28;20020;-62
2022/10/07 04:32:41;;;;;;;13.00;3.47;;;;;;;7.20;100.00;102427.22;5089621;28;20028;-62
2022/10/07 04:35:07;;;;;;;13.30;3.80;;;;;;;7.18;100.00;102430.44;5088315;28;20062;-63
2022/10/07 04:37:32;;;;;;;12.93;4.38;;;;;;;7.12;100.00;102433.50;5089504;28;20258;-62
2022/10/07 04:39:58;;;;;;;11.82;4.47;;;;;;;7.09;100.00;102428.13;5078525;28;20052;-63
2022/10/07 04:45:07;;;;;;;14.43;3.90;;;;;;;7.06;100.00;102427.91;5075599;28;20076;-62
2022/10/07 04:47:34;;;;;;;15.07;4.55;;;;;;;7.04;100.00;102430.38;5052076;28;20122;-63
2022/10/07 04:50:00;;;;;;;8.77;3.65;;;;;;;7.02;100.00;102424.22;5050926;28;20021;-63
2022/10/07 04:52:26;;;;;;;12.65;4.57;;;;;;;7.00;100.00;102419.75;5055247;28;20362;-63
2022/10/07 04:54:52;;;;;;;11.38;3.67;;;;;;;6.99;100.00;102420.50;5050577;28;20029;-62
2022/10/07 04:57:17;;;;;;;13.30;4.00;;;;;;;6.96;100.00;102414.34;5050161;28;20048;-63
2022/10/07 04:59:42;;;;;;;11.30;3.58;;;;;;;6.96;100.00;102409.19;5060283;28;20040;-63
2022/10/07 05:02:07;;;;;;;14.90;4.40;;;;;;;6.93;100.00;102411.56;5048752;28;20521;-63
2022/10/07 05:04:33;;;;;;;13.43;4.35;;;;;;;6.91;100.00;102410.53;5053390;28;20037;-63
2022/10/07 05:06:58;;;;;;;18.23;4.78;;;;;;;6.91;100.00;102407.97;5066059;28;20375;-62
2022/10/07 05:09:23;;;;;;;19.27;4.53;;;;;;;6.89;100.00;102409.53;5058317;28;20048;-62
2022/10/07 05:11:54;;;;;;;14.15;4.45;;;;;;;6.88;100.00;102412.91;5079603;28;20463;-62
2022/10/07 05:14:20;;;;;;;14.30;4.00;;;;;;;6.87;100.00;102405.97;5068310;28;20054;-62
2022/10/07 05:16:49;;;;;;;13.38;4.20;;;;;;;6.87;100.00;102402.50;5068849;28;20028;-62
2022/10/07 05:19:15;;;;;;;15.60;4.55;;;;;;;6.85;100.00;102407.53;5067935;28;20020;-63
2022/10/07 05:21:41;;;;;;;15.13;3.95;;;;;;;6.82;100.00;102404.72;5067150;28;20047;-62
2022/10/07 05:24:06;;;;;;;11.50;3.50;;;;;;;6.82;100.00;102408.19;5066471;28;20043;-62
2022/10/07 05:26:32;;;;;;;11.27;3.85;;;;;;;6.82;100.00;102399.56;5068680;28;20103;-63
2022/10/07 05:28:57;;;;;;;18.60;3.92;;;;;;;6.80;100.00;102399.44;5047752;28;20017;-62
2022/10/07 05:31:24;;;;;;;13.00;3.90;;;;;;;6.80;100.00;102404.59;5067322;28;20040;-62
2022/10/07 05:33:50;;;;;;;12.30;3.80;;;;;;;6.79;100.00;102396.75;5067099;28;20016;-62
2022/10/07 05:36:15;;;;;;;14.27;4.05;;;;;;;6.80;100.00;102390.84;5066756;28;20468;-63
2022/10/07 05:38:40;;;;;;;9.45;4.18;;;;;;;6.79;100.00;102391.63;5066158;28;20025;-62
2022/10/07 05:41:08;;;;;;;15.20;3.88;;;;;;;6.79;100.00;102381.31;5058377;28;20037;-63
2022/10/07 05:43:36;;;;;;;13.07;3.90;;;;;;;6.80;100.00;102388.28;5047824;28;20086;-62
2022/10/07 05:46:07;;;;;;;11.48;3.47;;;;;;;6.80;100.00;102383.13;5051109;28;20024;-63
2022/10/07 05:48:34;;;;;;;13.07;3.60;;;;;;;6.79;100.00;102387.38;5054639;28;20031;-63
2022/10/07 05:50:59;;;;;;;15.05;3.58;;;;;;;6.79;100.00;102387.38;5049383;28;20271;-63
2022/10/07 05:53:26;;;;;;;13.57;4.50;;;;;;;6.79;100.00;102383.88;5048628;28;20058;-63
2022/10/07 05:55:52;;;;;;;12.18;3.55;;;;;;;6.80;100.00;102383.13;5050803;28;20039;-62
2022/10/07 05:58:18;;;;;;;12.10;3.78;;;;;;;6.81;100.00;102382.31;5048262;28;20401;-63
2022/10/07 06:00:55;;;;;;;13.60;4.53;;;;;;;6.84;100.00;102374.81;5049213;28;20032;-62
2022/10/07 06:03:21;;;;;;;14.07;4.25;;;;;;;6.84;100.00;102373.13;5066594;28;20114;-62
2022/10/07 06:05:49;;;;;;;12.55;3.80;;;;;;;6.88;100.00;102371.66;5067854;28;20050;-62
2022/10/07 06:08:17;;;;;;;9.35;3.83;;;;;;;6.88;100.00;102369.09;5073161;28;20028;-63
2022/10/07 06:13:26;;;;;;;13.23;3.45;;;;;;;6.94;100.00;102366.94;5059681;28;20052;-62
2022/10/07 06:15:51;;;;;;;10.25;3.38;;;;;;;6.96;100.00;102367.94;5061525;28;20460;-62
2022/10/07 06:18:16;;;;;;;13.77;3.38;;;;;;;7.00;100.00;102373.34;5053102;28;20103;-62
2022/10/07 06:20:42;;;;;;;14.45;3.90;;;;;;;7.01;100.00;102362.25;5067046;28;20034;-62
2022/10/07 06:23:07;;;;;;;10.70;3.70;;;;;;;7.06;100.00;102360.88;5067777;28;20020;-63
2022/10/07 06:25:33;;;;;;;10.90;3.40;;;;;;;7.08;100.00;102360.22;5065979;28;20047;-62
2022/10/07 06:27:59;;;;;;;14.98;3.90;;;;;;;7.10;100.00;102357.75;5066390;28;20028;-63
2022/10/07 06:30:25;;;;;;;6.60;3.30;;;;;;;7.14;100.00;102357.16;5065485;28;20028;-63
2022/10/07 06:32:50;;;;;;;10.38;3.25;;;;;;;7.18;100.00;102364.31;5065361;28;20435;-62
2022/10/07 06:35:16;;;;;;;12.15;4.05;;;;;;;7.22;100.00;102360.28;5066978;28;20020;-63
2022/10/07 06:37:41;;;;;;;10.60;3.30;;;;;;;7.27;100.00;102366.66;5065483;28;20078;-63
2022/10/07 06:40:07;;;;;;;10.25;2.97;;;;;;;7.30;100.00;102365.97;5065742;28;20095;-62
2022/10/07 06:42:32;;;;;;;13.27;3.55;;;;;;;7.36;100.00;102362.94;5083901;28;20447;-63
2022/10/07 06:44:58;;;;;;;14.60;3.38;;;;;;;7.40;100.00;102368.41;5085515;28;20232;-63
2022/10/07 06:47:23;;;;;;;11.52;2.75;;;;;;;7.44;100.00;102360.09;5086311;28;20024;-62
2022/10/07 06:49:48;;;;;;;14.13;2.72;;;;;;;7.49;100.00;102363.00;5087244;28;20016;-62
2022/10/07 06:52:14;;;;;;;12.48;3.25;;;;;;;7.52;100.00;102364.91;5087357;28;20173;-62
2022/10/07 06:54:39;;;;;;;12.48;3.35;;;;;;;7.57;100.00;102364.41;5085554;28;20024;-63
2022/10/07 06:57:04;;;;;;;10.23;3.20;;;;;;;7.62;100.00;102369.91;5087435;28;20027;-62
2022/10/07 06:59:29;;;;;;;10.75;2.83;;;;;;;7.67;100.00;102368.53;5087239;28;20150;-63
2022/10/07 07:01:55;;;;;;;11.50;3.50;;;;;;;7.73;100.00;102369.72;5087140;28;20039;-62
2022/10/07 07:04:20;;;;;;;12.32;3.10;;;;;;;7.78;100.00;102369.25;5086358;28;20512;-63
2022/10/07 07:06:45;;;;;;;7.82;2.50;;;;;;;7.86;100.00;102369.75;5087169;28;20020;-63
2022/10/07 07:09:10;;;;;;;9.70;2.67;;;;;;;7.93;100.00;102374.56;5086803;28;20028;-62
2022/10/07 07:11:36;;;;;;;9.07;2.60;;;;;;;8.01;100.00;102369.00;5087159;28;20055;-63
2022/10/07 07:14:03;;;;;;;17.77;3.17;;;;;;;8.08;100.00;102366.03;5086971;28;20035;-63
2022/10/07 07:16:30;;;;;;;9.70;3.17;;;;;;;8.16;100.00;102366.56;5087193;28;20528;-63
2022/10/07 07:19:01;;;;;;;13.02;3.03;;;;;;;8.23;100.00;102365.28;5086999;28;20081;-62
2022/10/07 07:21:27;;;;;;;14.57;3.40;;;;;;;8.32;100.00;102367.56;5087008;28;20023;-63
2022/10/07 07:23:53;;;;;;;9.95;2.38;;;;;;;8.39;100.00;102372.34;5087718;28;20043;-62
2022/10/07 07:26:19;;;;;;;14.73;3.40;;;;;;;8.47;100.00;102370.28;5087134;28;20491;-62
2022/10/07 07:29:00;;;;;;;13.85;3.72;;;;;;;8.56;100.00;102370.03;5087368;28;20088;-63
2022/10/07 07:31:27;;;;;;;10.27;2.83;;;;;;;8.64;100.00;102371.41;5086514;28;20020;-63
2022/10/07 07:33:54;;;;;;;8.45;2.95;;;;;;;8.71;100.00;102370.09;5087250;28;20082;-62
2022/10/07 07:36:23;;;;;;;9.93;2.78;;;;;;;8.79;100.00;102366.34;5087160;28;20458;-62
2022/10/07 07:38:52;;;;;;;8.77;2.97;;;;;;;8.87;100.00;102364.22;5087052;28;20023;-63
2022/10/07 07:41:20;;;;;;;13.07;3.00;;;;;;;8.97;100.00;102376.06;5086838;28;20040;-63
2022/10/07 07:43:50;;;;;;;9.18;2.47;;;;;;;9.21;100.00;102368.91;5086664;28;20040;-63
2022/10/07 07:46:17;;;;;;;10.32;2.78;;;;;;;9.54;100.00;102367.41;5087130;28;20057;-63
2022/10/07 07:48:43;;;;;;;9.68;2.83;;;;;;;9.71;100.00;102360.69;5086717;28;20059;-63
2022/10/07 07:51:08;;;;;;;10.32;2.67;;;;;;;9.77;100.00;102352.41;5086978;28;20024;-63
2022/10/07 07:53:36;;;;;;;11.18;2.88;;;;;;;9.82;100.00;102357.03;5087100;28;20116;-63
2022/10/07 07:56:02;;;;;;;8.85;2.30;;;;;;;9.88;100.00;102368.56;5086085;28;20020;-62
2022/10/07 07:58:27;;;;;;;9.70;2.45;;;;;;;9.98;100.00;102365.72;5089215;28;20069;-63
2022/10/07 08:01:07;;;;;;;11.20;3.28;;;;;;;10.30;100.00;102371.91;5090204;28;20076;-63
2022/10/07 08:03:37;;;;;;;14.20;2.95;;;;;;;10.83;100.00;102360.13;5090384;28;20028;-63
2022/10/07 08:06:06;;;;;;;10.48;2.60;;;;;;;11.43;100.00;102365.06;5090262;28;20043;-64
2022/10/07 08:08:33;;;;;;;12.20;3.00;;;;;;;11.88;100.00;102369.97;5090129;28;20503;-64
2022/10/07 08:11:11;;;;;;;13.35;2.72;;;;;;;12.38;98.25;102355.94;5090498;28;20020;-64
2022/10/07 08:13:40;;;;;;;10.48;2.22;;;;;;;12.63;94.81;102353.66;5090472;28;20024;-64
2022/10/07 08:16:12;;;;;;;9.25;2.50;;;;;;;13.04;94.46;102354.69;5089993;28;20020;-64
2022/10/07 08:18:38;;;;;;;12.35;2.88;;;;;;;13.33;89.57;102354.22;5090552;28;20349;-64
2022/10/07 08:21:04;;;;;;;12.77;2.78;;;;;;;13.55;90.30;102357.81;5089872;28;20389;-65
2022/10/07 08:23:29;;;;;;;11.93;2.72;;;;;;;13.55;87.47;102360.41;5090335;28;20103;-64
2022/10/07 08:25:56;;;;;;;9.43;2.30;;;;;;;13.71;87.02;102355.91;5088209;28;20020;-65
2022/10/07 08:28:22;;;;;;;7.45;2.47;;;;;;;13.73;87.18;102354.22;5089572;28;20016;-64
2022/10/07 08:30:49;;;;;;;9.68;2.65;;;;;;;13.73;85.99;102349.91;5090073;28;20660;-65
2022/10/07 08:33:15;;;;;;;9.40;2.85;;;;;;;13.62;86.22;102348.56;5089553;28;20122;-64
2022/10/07 08:35:40;;;;;;;11.05;2.45;;;;;;;13.59;87.34;102348.44;5089707;28;20538;-64
2022/10/07 08:38:05;;;;;;;11.57;3.15;;;;;;;13.68;87.89;102341.03;5088888;28;20073;-64
2022/10/07 08:40:31;;;;;;;11.75;2.75;;;;;;;13.87;88.83;102344.44;5089512;28;20106;-64
2022/10/07 08:42:58;;;;;;;11.23;2.47;;;;;;;14.09;86.23;102341.00;5089160;28;20541;-65
2022/10/07 08:45:31;;;;;;;8.13;2.17;;;;;;;14.14;84.02;102339.47;5089009;28;20111;-64
2022/10/07 08:48:08;;;;;;;11.07;2.67;;;;;;;14.43;83.82;102330.16;5089529;28;20023;-65
2022/10/07 08:50:50;;;;;;;10.40;2.50;;;;;;;14.59;82.70;102326.44;5089473;28;20507;-64
2022/10/07 08:53:21;;;;;;;11.55;2.92;;;;;;;14.70;81.07;102337.25;5089436;28;20384;-64
2022/10/07 08:55:49;;;;;;;;;;;;;;;14.66;79.91;102320.59;5090416;28;20024;-64
2022/10/07 08:58:36;;;;;;;9.57;1.98;;;;;;;14.64;80.03;102320.53;5087686;28;20004;-65
2022/10/07 09:01:49;;;;;;;7.55;2.58;;;;;;;14.81;80.45;102312.53;5089160;28;20062;-64
2022/10/07 09:04:38;;;;;;;8.98;2.53;;;;;;;14.76;79.25;102316.66;5045935;28;20059;-64
2022/10/07 09:07:23;;;;;;;11.88;2.90;;;;;;;14.73;81.11;102311.31;5045875;28;20033;-64
2022/10/07 09:09:57;;;;;;;11.80;3.38;;;;;;;14.61;80.73;102304.78;5080730;28;20028;-64
2022/10/07 09:12:43;;;;;;;8.43;2.20;;;;;;;14.49;80.53;102309.53;5088648;28;20020;-64
2022/10/07 09:15:35;;;;;;;12.65;2.53;;;;;;;14.41;82.27;102301.38;5089465;28;20239;-64
2022/10/07 09:18:09;;;;;;;10.13;2.50;;;;;;;14.38;83.39;102301.28;5088424;28;20019;-64
2022/10/07 09:20:42;;;;;;;5.72;2.05;;;;;;;14.38;84.51;102302.19;5088869;28;20028;-64
2022/10/07 09:23:14;;;;;;;9.27;1.92;;;;;;;14.40;85.23;102300.53;5088423;28;20396;-65
2022/10/07 09:25:40;;;;;;;8.77;2.60;;;;;;;14.45;85.53;102289.34;5089345;28;20024;-64
2022/10/07 09:28:11;;;;;;;6.53;2.47;;;;;;;14.41;84.19;102286.66;5088368;28;20387;-64
2022/10/07 09:30:36;;;;;;;;;;;;;;;14.30;82.74;102293.19;5089201;28;20032;-64
2022/10/07 09:33:02;;;;;;;5.97;2.28;;;;;;;14.29;83.86;102283.56;5088700;28;20140;-64
2022/10/07 09:35:30;;;;;;;7.72;2.30;;;;;;;14.25;83.43;102287.75;5088820;28;20024;-64
2022/10/07 09:38:02;;;;;;;9.23;2.05;;;;;;;14.21;83.47;102287.59;5088227;28;20500;-64
2022/10/07 09:43:26;;;;;;;11.65;2.45;;;;;;;14.21;84.85;102271.94;5088569;28;20070;-64
2022/10/07 09:45:53;;;;;;;8.32;2.50;;;;;;;14.21;85.14;102278.03;5088790;28;20027;-67
2022/10/07 09:48:26;;;;;;;11.45;2.60;;;;;;;14.23;85.62;102270.28;5088239;28;20052;-64
2022/10/07 09:51:24;;;;;;;7.28;1.83;;;;;;;14.27;86.32;102266.94;5088203;28;20464;-64
2022/10/07 09:53:58;;;;;;;8.27;2.47;;;;;;;14.17;84.36;102270.94;5087466;28;20445;-64
2022/10/07 09:56:40;;;;;;;9.80;2.75;;;;;;;14.16;85.48;102262.22;5075147;28;20031;-65
2022/10/07 09:59:34;;;;;;;7.90;2.50;;;;;;;14.20;85.76;102258.00;5087700;28;20024;-64
2022/10/07 10:02:12;;;;;;;7.22;2.17;;;;;;;14.25;83.86;102263.41;5087502;28;20028;-64
2022/10/07 10:04:45;;;;;;;7.10;2.33;;;;;;;14.29;84.36;102260.09;5087829;28;20102;-64
2022/10/07 10:07:29;;;;;;;7.85;1.83;;;;;;;14.33;82.82;102251.56;5087939;28;20054;-64
2022/10/07 10:09:58;;;;;;;9.82;2.45;;;;;;;14.39;83.48;102257.00;5087646;28;20047;-64
2022/10/07 10:12:24;;;;;;;10.20;2.03;;;;;;;14.39;81.22;102249.19;5087485;28;20464;-65
2022/10/07 10:14:57;;;;;;;13.20;2.67;;;;;;;14.40;81.25;102248.38;5087649;28;20020;-65
2022/10/07 10:17:30;;;;;;;8.57;2.25;;;;;;;14.44;81.20;102253.69;5087733;28;20060;-64
2022/10/07 10:20:34;;;;;;;7.60;1.92;;;;;;;14.52;82.32;102247.94;5087071;28;20013;-64
2022/10/07 10:23:02;;;;;;;11.25;2.47;;;;;;;14.60;82.54;102235.19;5087658;28;20480;-64
2022/10/07 10:26:35;;;;;;;8.23;1.95;;;;;;;14.67;79.46;102230.19;5087422;28;20092;-64
2022/10/07 10:28:53;;;;;;;7.32;2.15;;;;;;;14.81;80.83;102221.19;5084270;28;20093;-64
2022/10/07 10:31:43;;;;;;;7.60;2.00;;;;;;;14.91;79.15;102218.91;5087416;28;20028;-64
2022/10/07 10:34:20;;;;;;;5.55;1.60;;;;;;;14.98;78.80;102205.25;5087243;28;20019;-64
2022/10/07 10:36:53;;;;;;;10.18;1.77;;;;;;;14.95;76.50;102215.59;5087064;28;20030;-65
2022/10/07 10:39:28;;;;;;;11.00;2.38;;;;;;;14.93;76.38;102212.03;5087458;28;20573;-64
2022/10/07 10:41:58;;;;;;;9.05;2.10;;;;;;;15.02;77.53;102204.50;5087055;28;20074;-64
2022/10/07 10:44:41;;;;;;;10.70;2.20;;;;;;;15.10;78.75;102205.69;5086987;28;20237;-64
2022/10/07 10:47:24;;;;;;;8.82;2.08;;;;;;;15.20;76.59;102198.19;5085791;28;20028;-64
2022/10/07 10:50:27;;;;;;;6.07;1.85;;;;;;;15.32;78.24;102184.66;5087331;28;20020;-65
2022/10/07 10:53:35;;;;;;;7.50;2.00;;;;;;;15.40;75.52;102183.16;5087271;28;20027;-64
2022/10/07 10:56:03;;;;;;;7.60;2.05;;;;;;;15.43;75.60;102182.41;5087166;28;20471;-64
2022/10/07 10:58:53;;;;;;;9.35;2.08;;;;;;;15.54;74.84;102178.41;5087429;28;20028;-64
2022/10/07 11:01:28;;;;;;;11.05;2.33;;;;;;;15.63;72.97;102179.56;5086748;28;20031;-64
2022/10/07 11:04:13;;;;;;;9.23;2.03;;;;;;;15.68;71.73;102177.97;5087438;28;20134;-64
2022/10/07 11:06:43;;;;;;;6.28;1.85;;;;;;;15.77;74.16;102173.03;5086944;28;20020;-64
2022/10/07 11:09:15;;;;;;;5.78;1.73;;;;;;;15.88;73.94;102167.25;5087178;28;20377;-64
2022/10/07 11:11:43;;;;;;;6.45;1.98;;;;;;;15.93;71.91;102173.53;5087028;28;20020;-64
2022/10/07 11:14:15;;;;;;;5.80;1.75;;;;;;;15.90;71.58;102168.22;5086796;28;20368;-65
2022/10/07 11:16:45;;;;;;;9.05;1.88;;;;;;;15.99;71.84;102163.28;5087064;28;20036;-65
2022/10/07 11:19:34;;;;;;;11.30;2.08;;;;;;;16.10;71.63;102160.13;5087202;28;20349;-64
2022/10/07 11:22:00;;;;;;;9.73;1.67;;;;;;;16.24;70.48;102156.19;5086691;28;20103;-64
2022/10/07 11:24:35;;;;;;;6.97;1.67;;;;;;;16.33;69.45;102151.19;5087114;28;20422;-65
2022/10/07 11:27:14;;;;;;;5.63;1.40;;;;;;;16.44;67.23;102141.03;5061379;28;20059;-65
2022/10/07 11:30:01;;;;;;;6.38;1.75;;;;;;;16.58;66.00;102148.41;5086625;28;20112;-64
2022/10/07 11:33:05;;;;;;;8.75;1.60;;;;;;;16.65;67.11;102134.66;5088189;28;20028;-64
2022/10/07 11:35:33;;;;;;;6.72;1.95;;;;;;;16.69;66.77;102114.69;5091003;28;20039;-64
2022/10/07 11:38:11;;;;;;;9.95;2.08;;;;;;;16.84;66.81;102126.41;5090872;28;20035;-65
2022/10/07 11:40:54;;;;;;;10.75;2.08;;;;;;;16.98;66.29;102113.69;5090716;28;20035;-64
2022/10/07 11:43:27;;;;;;;7.55;2.10;;;;;;;17.14;66.96;102107.13;5090386;28;20040;-65
2022/10/07 11:46:02;;;;;;;8.52;1.85;;;;;;;17.31;65.82;102098.78;5090891;28;20042;-64
2022/10/07 11:48:38;;;;;;;8.18;2.22;;;;;;;17.33;63.81;102086.59;5090745;28;20024;-64